sensor_id;sensor_type;location;lat;lon;timestamp;P1;durP1;ratioP1;P2;durP2;ratioP2
50900;SDS011;36879;51.416;6.678;2022-11-15T00:02:12;11.38;;;6.78;;
50900;SDS011;36879;51.416;6.678;2022-11-15T00:04:38;11.60;;;6.65;;
50900;SDS011;36879;51.416;6.678;2022-11-15T00:07:04;10.70;;;6.28;;
50900;SDS011;36879;51.416;6.678;2022-11-15T00:09:30;11.93;;;7.05;;
50900;SDS011;36879;51.416;6.678;2022-11-15T00:11:56;11.80;;;7.95;;
50900;SDS011;36879;51.416;6.678;2022-11-15T00:14:21;8.85;;;6.22;;
50900;SDS011;36879;51.416;6.678;2022-11-15T00:16:47;12.77;;;7.60;;
50900;SDS011;36879;51.416;6.678;2022-11-15T00:19:13;11.90;;;6.88;;
50900;SDS011;36879;51.416;6.678;2022-11-15T00:21:40;12.10;;;6.90;;
50900;SDS011;36879;51.416;6.678;2022-11-15T00:24:06;18.92;;;9.95;;
50900;SDS011;36879;51.416;6.678;2022-11-15T00:26:32;12.35;;;7.25;;
50900;SDS011;36879;51.416;6.678;2022-11-15T00:28:58;11.15;;;6.75;;
50900;SDS011;36879;51.416;6.678;2022-11-15T00:31:24;12.77;;;6.65;;
50900;SDS011;36879;51.416;6.678;2022-11-15T00:33:50;11.60;;;6.22;;
50900;SDS011;36879;51.416;6.678;2022-11-15T00:36:16;9.48;;;6.18;;
50900;SDS011;36879;51.416;6.678;2022-11-15T00:38:42;11.95;;;6.68;;
50900;SDS011;36879;51.416;6.678;2022-11-15T00:41:08;12.77;;;7.25;;
50900;SDS011;36879;51.416;6.678;2022-11-15T00:43:34;11.18;;;6.97;;
50900;SDS011;36879;51.416;6.678;2022-11-15T00:46:00;12.82;;;7.97;;
50900;SDS011;36879;51.416;6.678;2022-11-15T00:48:27;9.80;;;5.63;;
50900;SDS011;36879;51.416;6.678;2022-11-15T00:50:53;14.73;;;7.40;;
50900;SDS011;36879;51.416;6.678;2022-11-15T00:53:19;8.57;;;6.03;;
50900;SDS011;36879;51.416;6.678;2022-11-15T00:55:45;16.33;;;7.30;;
50900;SDS011;36879;51.416;6.678;2022-11-15T00:58:11;11.82;;;7.32;;
50900;SDS011;36879;51.416;6.678;2022-11-15T01:00:38;12.10;;;6.68;;
50900;SDS011;36879;51.416;6.678;2022-11-15T01:03:03;12.80;;;6.82;;
50900;SDS011;36879;51.416;6.678;2022-11-15T01:05:29;11.98;;;6.35;;
50900;SDS011;36879;51.416;6.678;2022-11-15T01:07:56;7.53;;;5.43;;
50900;SDS011;36879;51.416;6.678;2022-11-15T01:10:23;9.68;;;6.38;;
50900;SDS011;36879;51.416;6.678;2022-11-15T01:12:50;11.40;;;6.45;;
50900;SDS011;36879;51.416;6.678;2022-11-15T01:15:16;10.50;;;6.43;;
50900;SDS011;36879;51.416;6.678;2022-11-15T01:17:43;9.77;;;5.90;;
50900;SDS011;36879;51.416;6.678;2022-11-15T01:20:09;10.25;;;6.53;;
50900;SDS011;36879;51.416;6.678;2022-11-15T01:22:35;10.68;;;6.40;;
50900;SDS011;36879;51.416;6.678;2022-11-15T01:25:01;11.35;;;6.72;;
50900;SDS011;36879;51.416;6.678;2022-11-15T01:27:27;10.77;;;5.95;;
50900;SDS011;36879;51.416;6.678;2022-11-15T01:29:53;11.43;;;6.93;;
50900;SDS011;36879;51.416;6.678;2022-11-15T01:32:19;13.80;;;7.18;;
50900;SDS011;36879;51.416;6.678;2022-11-15T01:34:45;10.15;;;5.70;;
50900;SDS011;36879;51.416;6.678;2022-11-15T01:37:11;12.68;;;6.43;;
50900;SDS011;36879;51.416;6.678;2022-11-15T01:39:37;10.02;;;6.05;;
50900;SDS011;36879;51.416;6.678;2022-11-15T01:42:03;8.65;;;5.78;;
50900;SDS011;36879;51.416;6.678;2022-11-15T01:49:37;10.13;;;6.57;;
50900;SDS011;36879;51.416;6.678;2022-11-15T01:52:05;11.40;;;6.95;;
50900;SDS011;36879;51.416;6.678;2022-11-15T01:54:32;10.25;;;5.95;;
50900;SDS011;36879;51.416;6.678;2022-11-15T01:57:00;9.90;;;5.88;;
50900;SDS011;36879;51.416;6.678;2022-11-15T01:59:27;8.60;;;5.60;;
50900;SDS011;36879;51.416;6.678;2022-11-15T02:01:53;12.25;;;7.00;;
50900;SDS011;36879;51.416;6.678;2022-11-15T02:04:24;11.05;;;6.18;;
50900;SDS011;36879;51.416;6.678;2022-11-15T02:06:51;10.98;;;6.28;;
50900;SDS011;36879;51.416;6.678;2022-11-15T02:09:17;12.40;;;7.18;;
50900;SDS011;36879;51.416;6.678;2022-11-15T02:11:44;12.25;;;6.63;;
50900;SDS011;36879;51.416;6.678;2022-11-15T02:14:10;13.85;;;6.88;;
50900;SDS011;36879;51.416;6.678;2022-11-15T02:22:00;10.27;;;6.00;;
50900;SDS011;36879;51.416;6.678;2022-11-15T02:27:38;16.30;;;7.03;;
50900;SDS011;36879;51.416;6.678;2022-11-15T02:32:33;12.32;;;6.35;;
50900;SDS011;36879;51.416;6.678;2022-11-15T02:38:05;8.18;;;5.18;;
50900;SDS011;36879;51.416;6.678;2022-11-15T02:42:51;16.35;;;6.75;;
50900;SDS011;36879;51.416;6.678;2022-11-15T02:45:43;12.20;;;6.28;;
50900;SDS011;36879;51.416;6.678;2022-11-15T02:48:10;12.48;;;5.90;;
50900;SDS011;36879;51.416;6.678;2022-11-15T02:50:36;10.68;;;6.45;;
50900;SDS011;36879;51.416;6.678;2022-11-15T02:53:02;8.85;;;5.80;;
50900;SDS011;36879;51.416;6.678;2022-11-15T02:55:29;10.05;;;6.30;;
50900;SDS011;36879;51.416;6.678;2022-11-15T03:00:34;13.43;;;6.10;;
50900;SDS011;36879;51.416;6.678;2022-11-15T03:13:39;11.05;;;5.93;;
50900;SDS011;36879;51.416;6.678;2022-11-15T03:19:09;10.90;;;6.38;;
50900;SDS011;36879;51.416;6.678;2022-11-15T03:21:37;8.13;;;5.07;;
50900;SDS011;36879;51.416;6.678;2022-11-15T03:24:05;10.05;;;6.03;;
50900;SDS011;36879;51.416;6.678;2022-11-15T03:26:32;11.13;;;6.35;;
50900;SDS011;36879;51.416;6.678;2022-11-15T03:29:01;8.52;;;5.75;;
50900;SDS011;36879;51.416;6.678;2022-11-15T03:31:30;15.63;;;6.75;;
50900;SDS011;36879;51.416;6.678;2022-11-15T03:34:25;12.20;;;6.45;;
50900;SDS011;36879;51.416;6.678;2022-11-15T03:36:52;11.30;;;7.07;;
50900;SDS011;36879;51.416;6.678;2022-11-15T03:39:18;10.95;;;6.55;;
50900;SDS011;36879;51.416;6.678;2022-11-15T03:41:47;13.15;;;7.75;;
50900;SDS011;36879;51.416;6.678;2022-11-15T03:47:12;10.65;;;6.95;;
50900;SDS011;36879;51.416;6.678;2022-11-15T03:49:43;11.35;;;7.35;;
50900;SDS011;36879;51.416;6.678;2022-11-15T03:52:10;12.90;;;7.15;;
50900;SDS011;36879;51.416;6.678;2022-11-15T03:54:36;10.15;;;6.65;;
50900;SDS011;36879;51.416;6.678;2022-11-15T03:57:02;11.70;;;7.30;;
50900;SDS011;36879;51.416;6.678;2022-11-15T03:59:28;10.88;;;6.78;;
50900;SDS011;36879;51.416;6.678;2022-11-15T04:01:54;12.55;;;7.10;;
50900;SDS011;36879;51.416;6.678;2022-11-15T04:04:20;10.45;;;6.50;;
50900;SDS011;36879;51.416;6.678;2022-11-15T04:06:46;10.82;;;7.32;;
50900;SDS011;36879;51.416;6.678;2022-11-15T04:09:12;11.65;;;6.47;;
50900;SDS011;36879;51.416;6.678;2022-11-15T04:11:38;12.82;;;7.45;;
50900;SDS011;36879;51.416;6.678;2022-11-15T04:14:04;9.80;;;6.53;;
50900;SDS011;36879;51.416;6.678;2022-11-15T04:16:30;9.68;;;5.72;;
50900;SDS011;36879;51.416;6.678;2022-11-15T04:18:56;12.20;;;6.82;;
50900;SDS011;36879;51.416;6.678;2022-11-15T04:21:41;10.50;;;6.45;;
50900;SDS011;36879;51.416;6.678;2022-11-15T04:24:25;10.52;;;7.18;;
50900;SDS011;36879;51.416;6.678;2022-11-15T04:26:51;13.88;;;5.85;;
50900;SDS011;36879;51.416;6.678;2022-11-15T04:29:17;11.07;;;6.68;;
50900;SDS011;36879;51.416;6.678;2022-11-15T04:32:02;12.95;;;7.63;;
50900;SDS011;36879;51.416;6.678;2022-11-15T04:34:28;10.40;;;6.93;;
50900;SDS011;36879;51.416;6.678;2022-11-15T04:36:54;13.65;;;6.88;;
50900;SDS011;36879;51.416;6.678;2022-11-15T04:39:39;10.52;;;6.70;;
50900;SDS011;36879;51.416;6.678;2022-11-15T04:42:05;13.77;;;6.47;;
50900;SDS011;36879;51.416;6.678;2022-11-15T04:44:31;7.85;;;5.35;;
50900;SDS011;36879;51.416;6.678;2022-11-15T04:46:57;9.38;;;5.15;;
50900;SDS011;36879;51.416;6.678;2022-11-15T04:49:23;11.10;;;5.40;;
50900;SDS011;36879;51.416;6.678;2022-11-15T04:51:49;7.68;;;4.88;;
50900;SDS011;36879;51.416;6.678;2022-11-15T04:54:15;6.68;;;4.78;;
50900;SDS011;36879;51.416;6.678;2022-11-15T04:56:41;11.85;;;6.35;;
50900;SDS011;36879;51.416;6.678;2022-11-15T04:59:07;10.77;;;5.43;;
50900;SDS011;36879;51.416;6.678;2022-11-15T05:01:33;10.85;;;5.53;;
50900;SDS011;36879;51.416;6.678;2022-11-15T05:03:59;10.10;;;5.07;;
50900;SDS011;36879;51.416;6.678;2022-11-15T05:06:44;9.40;;;5.60;;
50900;SDS011;36879;51.416;6.678;2022-11-15T05:09:10;10.73;;;5.63;;
50900;SDS011;36879;51.416;6.678;2022-11-15T05:11:37;10.82;;;5.97;;
50900;SDS011;36879;51.416;6.678;2022-11-15T05:14:04;11.68;;;5.60;;
50900;SDS011;36879;51.416;6.678;2022-11-15T05:16:30;8.57;;;5.70;;
50900;SDS011;36879;51.416;6.678;2022-11-15T05:18:56;8.35;;;5.13;;
50900;SDS011;36879;51.416;6.678;2022-11-15T05:21:22;10.63;;;4.88;;
50900;SDS011;36879;51.416;6.678;2022-11-15T05:23:48;9.52;;;5.18;;
50900;SDS011;36879;51.416;6.678;2022-11-15T05:26:15;8.60;;;4.20;;
50900;SDS011;36879;51.416;6.678;2022-11-15T05:28:42;7.93;;;4.65;;
50900;SDS011;36879;51.416;6.678;2022-11-15T05:31:09;9.57;;;4.43;;
50900;SDS011;36879;51.416;6.678;2022-11-15T05:33:35;5.40;;;3.78;;
50900;SDS011;36879;51.416;6.678;2022-11-15T05:38:32;10.23;;;5.20;;
50900;SDS011;36879;51.416;6.678;2022-11-15T05:40:59;11.40;;;5.50;;
50900;SDS011;36879;51.416;6.678;2022-11-15T05:43:25;7.85;;;4.75;;
50900;SDS011;36879;51.416;6.678;2022-11-15T05:45:52;7.82;;;5.25;;
50900;SDS011;36879;51.416;6.678;2022-11-15T05:48:18;8.82;;;5.55;;
50900;SDS011;36879;51.416;6.678;2022-11-15T05:50:45;9.77;;;5.55;;
50900;SDS011;36879;51.416;6.678;2022-11-15T05:53:12;11.90;;;6.05;;
50900;SDS011;36879;51.416;6.678;2022-11-15T05:55:40;7.85;;;5.22;;
50900;SDS011;36879;51.416;6.678;2022-11-15T05:58:06;10.73;;;5.72;;
50900;SDS011;36879;51.416;6.678;2022-11-15T06:00:35;9.52;;;6.20;;
50900;SDS011;36879;51.416;6.678;2022-11-15T06:03:01;12.57;;;5.65;;
50900;SDS011;36879;51.416;6.678;2022-11-15T06:05:27;14.52;;;7.13;;
50900;SDS011;36879;51.416;6.678;2022-11-15T06:07:56;14.43;;;7.47;;
50900;SDS011;36879;51.416;6.678;2022-11-15T06:10:23;13.77;;;7.57;;
50900;SDS011;36879;51.416;6.678;2022-11-15T06:12:56;16.30;;;7.38;;
50900;SDS011;36879;51.416;6.678;2022-11-15T06:15:22;9.82;;;5.85;;
50900;SDS011;36879;51.416;6.678;2022-11-15T06:17:48;9.52;;;5.63;;
50900;SDS011;36879;51.416;6.678;2022-11-15T06:20:14;8.25;;;5.00;;
50900;SDS011;36879;51.416;6.678;2022-11-15T06:22:40;7.97;;;5.20;;
50900;SDS011;36879;51.416;6.678;2022-11-15T06:25:06;8.85;;;5.45;;
50900;SDS011;36879;51.416;6.678;2022-11-15T06:27:32;8.55;;;4.78;;
50900;SDS011;36879;51.416;6.678;2022-11-15T06:29:58;8.30;;;4.70;;
50900;SDS011;36879;51.416;6.678;2022-11-15T06:32:24;8.82;;;5.05;;
50900;SDS011;36879;51.416;6.678;2022-11-15T06:34:50;7.45;;;4.55;;
50900;SDS011;36879;51.416;6.678;2022-11-15T06:37:16;6.15;;;4.20;;
50900;SDS011;36879;51.416;6.678;2022-11-15T06:39:42;8.73;;;4.32;;
50900;SDS011;36879;51.416;6.678;2022-11-15T06:42:08;8.10;;;5.30;;
50900;SDS011;36879;51.416;6.678;2022-11-15T06:44:34;7.25;;;4.30;;
50900;SDS011;36879;51.416;6.678;2022-11-15T06:47:00;6.60;;;4.55;;
50900;SDS011;36879;51.416;6.678;2022-11-15T06:49:26;9.32;;;4.55;;
50900;SDS011;36879;51.416;6.678;2022-11-15T06:51:52;7.57;;;4.35;;
50900;SDS011;36879;51.416;6.678;2022-11-15T06:54:18;6.25;;;4.47;;
50900;SDS011;36879;51.416;6.678;2022-11-15T06:56:45;5.22;;;3.80;;
50900;SDS011;36879;51.416;6.678;2022-11-15T06:59:12;6.72;;;3.88;;
50900;SDS011;36879;51.416;6.678;2022-11-15T07:01:38;8.05;;;4.78;;
50900;SDS011;36879;51.416;6.678;2022-11-15T07:04:04;9.82;;;4.68;;
50900;SDS011;36879;51.416;6.678;2022-11-15T07:06:30;6.20;;;4.53;;
50900;SDS011;36879;51.416;6.678;2022-11-15T07:08:56;6.68;;;4.28;;
50900;SDS011;36879;51.416;6.678;2022-11-15T07:11:21;6.40;;;4.10;;
50900;SDS011;36879;51.416;6.678;2022-11-15T07:13:47;6.43;;;3.38;;
50900;SDS011;36879;51.416;6.678;2022-11-15T07:16:13;6.18;;;3.05;;
50900;SDS011;36879;51.416;6.678;2022-11-15T07:18:40;5.88;;;3.33;;
50900;SDS011;36879;51.416;6.678;2022-11-15T07:21:10;5.88;;;3.22;;
50900;SDS011;36879;51.416;6.678;2022-11-15T07:23:37;6.18;;;2.97;;
50900;SDS011;36879;51.416;6.678;2022-11-15T07:26:04;7.70;;;3.20;;
50900;SDS011;36879;51.416;6.678;2022-11-15T07:28:30;7.38;;;3.40;;
50900;SDS011;36879;51.416;6.678;2022-11-15T07:30:56;4.63;;;3.00;;
50900;SDS011;36879;51.416;6.678;2022-11-15T07:33:22;5.13;;;3.10;;
50900;SDS011;36879;51.416;6.678;2022-11-15T07:35:48;9.23;;;3.75;;
50900;SDS011;36879;51.416;6.678;2022-11-15T07:38:14;5.90;;;2.92;;
50900;SDS011;36879;51.416;6.678;2022-11-15T07:40:40;5.70;;;2.80;;
50900;SDS011;36879;51.416;6.678;2022-11-15T07:43:07;7.35;;;2.70;;
50900;SDS011;36879;51.416;6.678;2022-11-15T07:45:34;4.60;;;2.95;;
50900;SDS011;36879;51.416;6.678;2022-11-15T07:48:05;4.50;;;2.80;;
50900;SDS011;36879;51.416;6.678;2022-11-15T07:50:31;7.93;;;3.85;;
50900;SDS011;36879;51.416;6.678;2022-11-15T07:52:58;13.43;;;4.70;;
50900;SDS011;36879;51.416;6.678;2022-11-15T07:55:24;11.43;;;4.88;;
50900;SDS011;36879;51.416;6.678;2022-11-15T07:57:52;14.75;;;5.30;;
50900;SDS011;36879;51.416;6.678;2022-11-15T08:00:18;14.82;;;5.45;;
50900;SDS011;36879;51.416;6.678;2022-11-15T08:02:44;14.10;;;4.30;;
50900;SDS011;36879;51.416;6.678;2022-11-15T08:05:10;10.27;;;4.13;;
50900;SDS011;36879;51.416;6.678;2022-11-15T08:07:37;12.32;;;3.47;;
50900;SDS011;36879;51.416;6.678;2022-11-15T08:10:04;4.88;;;2.00;;
50900;SDS011;36879;51.416;6.678;2022-11-15T08:12:31;4.70;;;1.65;;
50900;SDS011;36879;51.416;6.678;2022-11-15T08:14:57;2.78;;;1.48;;
50900;SDS011;36879;51.416;6.678;2022-11-15T08:17:23;4.25;;;1.40;;
50900;SDS011;36879;51.416;6.678;2022-11-15T08:19:50;4.90;;;1.40;;
50900;SDS011;36879;51.416;6.678;2022-11-15T08:22:17;3.67;;;1.10;;
50900;SDS011;36879;51.416;6.678;2022-11-15T08:24:43;2.33;;;1.13;;
50900;SDS011;36879;51.416;6.678;2022-11-15T08:27:09;6.03;;;1.63;;
50900;SDS011;36879;51.416;6.678;2022-11-15T08:29:42;5.35;;;1.50;;
50900;SDS011;36879;51.416;6.678;2022-11-15T08:32:08;3.63;;;1.67;;
50900;SDS011;36879;51.416;6.678;2022-11-15T08:34:34;4.97;;;2.10;;
50900;SDS011;36879;51.416;6.678;2022-11-15T08:37:00;3.03;;;1.65;;
50900;SDS011;36879;51.416;6.678;2022-11-15T08:39:26;3.10;;;1.90;;
50900;SDS011;36879;51.416;6.678;2022-11-15T08:41:52;5.03;;;2.38;;
50900;SDS011;36879;51.416;6.678;2022-11-15T08:44:18;5.38;;;2.65;;
50900;SDS011;36879;51.416;6.678;2022-11-15T08:46:47;8.65;;;2.83;;
50900;SDS011;36879;51.416;6.678;2022-11-15T08:49:13;7.22;;;3.83;;
50900;SDS011;36879;51.416;6.678;2022-11-15T08:51:39;7.70;;;2.60;;
50900;SDS011;36879;51.416;6.678;2022-11-15T08:54:05;6.25;;;2.58;;
50900;SDS011;36879;51.416;6.678;2022-11-15T08:56:31;5.15;;;3.15;;
50900;SDS011;36879;51.416;6.678;2022-11-15T08:58:57;3.83;;;2.13;;
50900;SDS011;36879;51.416;6.678;2022-11-15T09:01:23;7.03;;;2.40;;
50900;SDS011;36879;51.416;6.678;2022-11-15T09:03:49;5.45;;;2.50;;
50900;SDS011;36879;51.416;6.678;2022-11-15T09:06:16;7.20;;;3.17;;
50900;SDS011;36879;51.416;6.678;2022-11-15T09:08:42;5.68;;;2.40;;
50900;SDS011;36879;51.416;6.678;2022-11-15T09:11:08;7.53;;;3.00;;
50900;SDS011;36879;51.416;6.678;2022-11-15T09:13:35;3.75;;;2.53;;
50900;SDS011;36879;51.416;6.678;2022-11-15T09:16:02;9.60;;;3.50;;
50900;SDS011;36879;51.416;6.678;2022-11-15T09:18:28;6.55;;;3.38;;
50900;SDS011;36879;51.416;6.678;2022-11-15T09:20:55;4.10;;;2.75;;
50900;SDS011;36879;51.416;6.678;2022-11-15T09:23:21;6.38;;;3.25;;
50900;SDS011;36879;51.416;6.678;2022-11-15T09:25:48;5.00;;;2.92;;
50900;SDS011;36879;51.416;6.678;2022-11-15T09:28:14;4.43;;;3.00;;
50900;SDS011;36879;51.416;6.678;2022-11-15T09:30:40;4.60;;;2.85;;
50900;SDS011;36879;51.416;6.678;2022-11-15T09:33:07;5.95;;;3.10;;
50900;SDS011;36879;51.416;6.678;2022-11-15T09:35:33;4.78;;;3.03;;
50900;SDS011;36879;51.416;6.678;2022-11-15T09:37:59;5.32;;;3.97;;
50900;SDS011;36879;51.416;6.678;2022-11-15T09:40:25;5.63;;;3.15;;
50900;SDS011;36879;51.416;6.678;2022-11-15T09:45:36;8.38;;;4.07;;
50900;SDS011;36879;51.416;6.678;2022-11-15T09:50:48;5.17;;;2.47;;
50900;SDS011;36879;51.416;6.678;2022-11-15T09:53:15;3.33;;;2.08;;
50900;SDS011;36879;51.416;6.678;2022-11-15T09:55:50;6.07;;;2.72;;
50900;SDS011;36879;51.416;6.678;2022-11-15T09:58:25;3.20;;;1.90;;
50900;SDS011;36879;51.416;6.678;2022-11-15T10:00:52;3.63;;;2.35;;
50900;SDS011;36879;51.416;6.678;2022-11-15T10:03:27;3.67;;;2.45;;
50900;SDS011;36879;51.416;6.678;2022-11-15T10:05:56;5.00;;;2.15;;
50900;SDS011;36879;51.416;6.678;2022-11-15T10:11:09;2.47;;;1.67;;
50900;SDS011;36879;51.416;6.678;2022-11-15T10:13:37;2.90;;;1.67;;
50900;SDS011;36879;51.416;6.678;2022-11-15T10:21:29;3.88;;;1.30;;
50900;SDS011;36879;51.416;6.678;2022-11-15T10:23:58;2.97;;;1.48;;
50900;SDS011;36879;51.416;6.678;2022-11-15T10:26:24;3.38;;;1.23;;
50900;SDS011;36879;51.416;6.678;2022-11-15T10:28:50;1.83;;;1.20;;
50900;SDS011;36879;51.416;6.678;2022-11-15T10:31:24;3.65;;;1.40;;
50900;SDS011;36879;51.416;6.678;2022-11-15T10:33:51;2.08;;;1.15;;
50900;SDS011;36879;51.416;6.678;2022-11-15T10:36:18;3.88;;;1.25;;
50900;SDS011;36879;51.416;6.678;2022-11-15T10:41:15;2.72;;;1.40;;
50900;SDS011;36879;51.416;6.678;2022-11-15T10:43:41;4.03;;;1.98;;
50900;SDS011;36879;51.416;6.678;2022-11-15T10:46:18;8.65;;;2.60;;
50900;SDS011;36879;51.416;6.678;2022-11-15T10:48:45;10.30;;;4.35;;
50900;SDS011;36879;51.416;6.678;2022-11-15T10:51:21;11.32;;;4.32;;
50900;SDS011;36879;51.416;6.678;2022-11-15T10:53:50;2.95;;;1.30;;
50900;SDS011;36879;51.416;6.678;2022-11-15T10:56:17;5.05;;;2.92;;
50900;SDS011;36879;51.416;6.678;2022-11-15T10:58:50;3.10;;;1.52;;
50900;SDS011;36879;51.416;6.678;2022-11-15T11:01:18;3.53;;;1.20;;
50900;SDS011;36879;51.416;6.678;2022-11-15T11:03:46;4.18;;;2.03;;
50900;SDS011;36879;51.416;6.678;2022-11-15T11:06:24;2.35;;;1.27;;
50900;SDS011;36879;51.416;6.678;2022-11-15T11:11:22;6.15;;;2.38;;
50900;SDS011;36879;51.416;6.678;2022-11-15T11:13:48;5.90;;;2.85;;
50900;SDS011;36879;51.416;6.678;2022-11-15T11:21:19;2.33;;;1.17;;
50900;SDS011;36879;51.416;6.678;2022-11-15T11:31:24;2.70;;;1.73;;
50900;SDS011;36879;51.416;6.678;2022-11-15T11:41:57;8.55;;;1.70;;
50900;SDS011;36879;51.416;6.678;2022-11-15T11:47:18;4.25;;;2.25;;
50900;SDS011;36879;51.416;6.678;2022-11-15T11:52:17;4.38;;;1.48;;
50900;SDS011;36879;51.416;6.678;2022-11-15T11:54:49;2.28;;;1.00;;
50900;SDS011;36879;51.416;6.678;2022-11-15T11:57:34;4.18;;;1.17;;
50900;SDS011;36879;51.416;6.678;2022-11-15T12:00:21;3.92;;;1.52;;
50900;SDS011;36879;51.416;6.678;2022-11-15T12:05:26;2.90;;;1.20;;
50900;SDS011;36879;51.416;6.678;2022-11-15T12:07:53;4.85;;;1.70;;
50900;SDS011;36879;51.416;6.678;2022-11-15T12:10:24;5.15;;;2.05;;
50900;SDS011;36879;51.416;6.678;2022-11-15T12:13:02;6.45;;;2.35;;
50900;SDS011;36879;51.416;6.678;2022-11-15T12:15:31;3.38;;;1.40;;
50900;SDS011;36879;51.416;6.678;2022-11-15T12:17:58;4.05;;;1.25;;
50900;SDS011;36879;51.416;6.678;2022-11-15T12:20:26;5.28;;;1.77;;
50900;SDS011;36879;51.416;6.678;2022-11-15T12:23:07;4.97;;;1.08;;
50900;SDS011;36879;51.416;6.678;2022-11-15T12:25:55;2.78;;;0.95;;
50900;SDS011;36879;51.416;6.678;2022-11-15T12:30:50;1.70;;;0.70;;
50900;SDS011;36879;51.416;6.678;2022-11-15T12:36:00;1.42;;;0.85;;
50900;SDS011;36879;51.416;6.678;2022-11-15T12:41:12;2.40;;;1.02;;
50900;SDS011;36879;51.416;6.678;2022-11-15T12:43:39;1.98;;;1.13;;
50900;SDS011;36879;51.416;6.678;2022-11-15T12:46:10;3.50;;;1.40;;
50900;SDS011;36879;51.416;6.678;2022-11-15T12:51:03;4.15;;;1.23;;
50900;SDS011;36879;51.416;6.678;2022-11-15T12:53:30;4.00;;;1.30;;
50900;SDS011;36879;51.416;6.678;2022-11-15T13:01:51;5.10;;;2.17;;
50900;SDS011;36879;51.416;6.678;2022-11-15T13:06:43;2.15;;;1.15;;
50900;SDS011;36879;51.416;6.678;2022-11-15T13:11:54;4.88;;;1.20;;
50900;SDS011;36879;51.416;6.678;2022-11-15T13:22:22;2.45;;;1.50;;
50900;SDS011;36879;51.416;6.678;2022-11-15T13:25:14;2.50;;;1.40;;
50900;SDS011;36879;51.416;6.678;2022-11-15T13:27:44;3.55;;;1.33;;
50900;SDS011;36879;51.416;6.678;2022-11-15T13:30:13;4.75;;;0.80;;
50900;SDS011;36879;51.416;6.678;2022-11-15T13:32:42;3.67;;;1.00;;
50900;SDS011;36879;51.416;6.678;2022-11-15T13:35:07;2.42;;;0.93;;
50900;SDS011;36879;51.416;6.678;2022-11-15T13:37:33;4.88;;;1.00;;
50900;SDS011;36879;51.416;6.678;2022-11-15T13:40:18;2.90;;;1.35;;
50900;SDS011;36879;51.416;6.678;2022-11-15T13:42:45;1.25;;;0.80;;
50900;SDS011;36879;51.416;6.678;2022-11-15T13:45:13;3.17;;;1.00;;
50900;SDS011;36879;51.416;6.678;2022-11-15T13:47:40;3.83;;;1.50;;
50900;SDS011;36879;51.416;6.678;2022-11-15T13:50:10;6.65;;;1.13;;
50900;SDS011;36879;51.416;6.678;2022-11-15T13:52:36;4.10;;;1.30;;
50900;SDS011;36879;51.416;6.678;2022-11-15T13:55:10;4.75;;;1.33;;
50900;SDS011;36879;51.416;6.678;2022-11-15T13:57:54;4.00;;;1.42;;
50900;SDS011;36879;51.416;6.678;2022-11-15T14:05:32;1.52;;;0.95;;
50900;SDS011;36879;51.416;6.678;2022-11-15T14:10:43;1.67;;;0.98;;
50900;SDS011;36879;51.416;6.678;2022-11-15T14:13:29;5.75;;;1.98;;
50900;SDS011;36879;51.416;6.678;2022-11-15T14:16:11;1.70;;;0.73;;
50900;SDS011;36879;51.416;6.678;2022-11-15T14:18:39;4.30;;;0.80;;
50900;SDS011;36879;51.416;6.678;2022-11-15T14:21:06;3.03;;;1.15;;
50900;SDS011;36879;51.416;6.678;2022-11-15T14:23:33;2.28;;;1.08;;
50900;SDS011;36879;51.416;6.678;2022-11-15T14:25:59;2.70;;;1.52;;
50900;SDS011;36879;51.416;6.678;2022-11-15T14:30:52;3.35;;;1.05;;
50900;SDS011;36879;51.416;6.678;2022-11-15T14:33:20;4.05;;;1.38;;
50900;SDS011;36879;51.416;6.678;2022-11-15T14:35:46;5.82;;;1.63;;
50900;SDS011;36879;51.416;6.678;2022-11-15T14:38:13;2.30;;;0.95;;
50900;SDS011;36879;51.416;6.678;2022-11-15T14:40:41;5.05;;;1.40;;
50900;SDS011;36879;51.416;6.678;2022-11-15T14:43:08;3.42;;;1.02;;
50900;SDS011;36879;51.416;6.678;2022-11-15T14:45:36;4.07;;;1.00;;
50900;SDS011;36879;51.416;6.678;2022-11-15T14:48:02;4.05;;;1.52;;
50900;SDS011;36879;51.416;6.678;2022-11-15T14:50:28;2.35;;;0.93;;
50900;SDS011;36879;51.416;6.678;2022-11-15T14:52:54;2.00;;;0.98;;
50900;SDS011;36879;51.416;6.678;2022-11-15T14:57:49;3.53;;;1.05;;
50900;SDS011;36879;51.416;6.678;2022-11-15T15:00:15;1.95;;;0.95;;
50900;SDS011;36879;51.416;6.678;2022-11-15T15:02:43;2.47;;;1.35;;
50900;SDS011;36879;51.416;6.678;2022-11-15T15:05:16;2.30;;;1.15;;
50900;SDS011;36879;51.416;6.678;2022-11-15T15:07:43;1.83;;;1.10;;
50900;SDS011;36879;51.416;6.678;2022-11-15T15:10:09;3.00;;;1.20;;
50900;SDS011;36879;51.416;6.678;2022-11-15T15:12:35;4.35;;;2.20;;
50900;SDS011;36879;51.416;6.678;2022-11-15T15:15:02;7.53;;;1.77;;
50900;SDS011;36879;51.416;6.678;2022-11-15T15:17:28;3.17;;;1.75;;
50900;SDS011;36879;51.416;6.678;2022-11-15T15:19:54;3.50;;;1.45;;
50900;SDS011;36879;51.416;6.678;2022-11-15T15:22:20;3.17;;;1.38;;
50900;SDS011;36879;51.416;6.678;2022-11-15T15:24:50;2.55;;;1.30;;
50900;SDS011;36879;51.416;6.678;2022-11-15T15:27:16;2.40;;;1.38;;
50900;SDS011;36879;51.416;6.678;2022-11-15T15:29:42;3.10;;;1.58;;
50900;SDS011;36879;51.416;6.678;2022-11-15T15:32:09;2.70;;;1.48;;
50900;SDS011;36879;51.416;6.678;2022-11-15T15:34:35;2.58;;;1.58;;
50900;SDS011;36879;51.416;6.678;2022-11-15T15:39:34;3.67;;;1.75;;
50900;SDS011;36879;51.416;6.678;2022-11-15T15:42:00;2.75;;;1.50;;
50900;SDS011;36879;51.416;6.678;2022-11-15T15:44:26;3.35;;;1.70;;
50900;SDS011;36879;51.416;6.678;2022-11-15T15:46:51;4.03;;;1.67;;
50900;SDS011;36879;51.416;6.678;2022-11-15T15:49:17;4.32;;;1.90;;
50900;SDS011;36879;51.416;6.678;2022-11-15T15:51:43;2.95;;;1.83;;
50900;SDS011;36879;51.416;6.678;2022-11-15T15:54:09;4.88;;;1.67;;
50900;SDS011;36879;51.416;6.678;2022-11-15T15:56:35;5.68;;;1.73;;
50900;SDS011;36879;51.416;6.678;2022-11-15T15:59:01;4.35;;;2.15;;
50900;SDS011;36879;51.416;6.678;2022-11-15T16:01:27;4.13;;;1.70;;
50900;SDS011;36879;51.416;6.678;2022-11-15T16:03:53;3.63;;;1.38;;
50900;SDS011;36879;51.416;6.678;2022-11-15T16:06:38;2.67;;;1.40;;
50900;SDS011;36879;51.416;6.678;2022-11-15T16:09:08;4.82;;;1.63;;
50900;SDS011;36879;51.416;6.678;2022-11-15T16:11:35;4.15;;;1.50;;
50900;SDS011;36879;51.416;6.678;2022-11-15T16:14:01;3.05;;;1.58;;
50900;SDS011;36879;51.416;6.678;2022-11-15T16:16:27;2.63;;;1.60;;
50900;SDS011;36879;51.416;6.678;2022-11-15T16:18:53;4.80;;;1.90;;
50900;SDS011;36879;51.416;6.678;2022-11-15T16:21:19;3.60;;;1.83;;
50900;SDS011;36879;51.416;6.678;2022-11-15T16:23:45;6.35;;;1.45;;
50900;SDS011;36879;51.416;6.678;2022-11-15T16:26:18;3.17;;;1.80;;
50900;SDS011;36879;51.416;6.678;2022-11-15T16:28:45;5.43;;;1.88;;
50900;SDS011;36879;51.416;6.678;2022-11-15T16:31:11;6.38;;;2.28;;
50900;SDS011;36879;51.416;6.678;2022-11-15T16:33:38;6.10;;;1.58;;
50900;SDS011;36879;51.416;6.678;2022-11-15T16:36:05;7.03;;;1.60;;
50900;SDS011;36879;51.416;6.678;2022-11-15T16:38:31;5.03;;;1.75;;
50900;SDS011;36879;51.416;6.678;2022-11-15T16:40:57;3.05;;;2.10;;
50900;SDS011;36879;51.416;6.678;2022-11-15T16:43:23;3.95;;;1.48;;
50900;SDS011;36879;51.416;6.678;2022-11-15T16:45:49;3.05;;;2.03;;
50900;SDS011;36879;51.416;6.678;2022-11-15T16:48:22;3.35;;;1.40;;
50900;SDS011;36879;51.416;6.678;2022-11-15T16:50:49;3.22;;;1.50;;
50900;SDS011;36879;51.416;6.678;2022-11-15T16:53:15;4.43;;;1.75;;
50900;SDS011;36879;51.416;6.678;2022-11-15T16:55:41;2.55;;;1.35;;
50900;SDS011;36879;51.416;6.678;2022-11-15T16:58:08;6.07;;;1.40;;
50900;SDS011;36879;51.416;6.678;2022-11-15T17:00:34;2.78;;;1.40;;
50900;SDS011;36879;51.416;6.678;2022-11-15T17:03:00;1.70;;;1.15;;